Time;durP1;ratioP1;P1;durP2;ratioP2;P2;SDS_P1;SDS_P2;PMS_P1;PMS_P2;Temp;Humidity;BMP_temperature;BMP_pressure;BME280_temperature;BME280_humidity;BME280_pressure;Samples;Min_cycle;Max_cycle;Signal;HPM_P1;HPM_P2
2022/03/22 00:01:37;;;;;;;17.17;9.05;;;0.50;37.10;;;;;;5062034;28;20335;-60
2022/03/22 00:04:03;;;;;;;20.02;10.10;;;0.70;33.10;;;;;;5065052;28;20031;-60
2022/03/22 00:06:29;;;;;;;21.23;10.07;;;0.90;35.20;;;;;;5067715;28;20539;-60
2022/03/22 00:08:55;;;;;;;20.13;10.02;;;1.00;32.40;;;;;;5065659;28;20029;-60
2022/03/22 00:11:20;;;;;;;19.83;10.68;;;1.20;31.90;;;;;;5067716;28;20028;-60
2022/03/22 00:13:46;;;;;;;21.85;10.50;;;1.20;31.00;;;;;;5059851;28;20029;-60
2022/03/22 00:16:12;;;;;;;21.52;10.20;;;1.40;32.20;;;;;;5065665;28;20682;-60
2022/03/22 00:18:38;;;;;;;18.90;9.40;;;1.30;30.90;;;;;;5065275;28;20025;-60
2022/03/22 00:21:06;;;;;;;18.77;9.43;;;1.30;31.40;;;;;;5053728;28;20053;-60
2022/03/22 00:23:32;;;;;;;18.42;9.32;;;1.10;33.60;;;;;;5064905;28;20045;-60
2022/03/22 00:25:58;;;;;;;16.58;7.90;;;1.00;33.50;;;;;;5058106;28;20044;-60
2022/03/22 00:28:23;;;;;;;17.02;8.35;;;0.80;34.40;;;;;;5067025;28;20110;-60
2022/03/22 00:30:50;;;;;;;15.55;6.90;;;0.70;34.40;;;;;;5054964;28;20102;-60
2022/03/22 00:33:16;;;;;;;13.13;7.70;;;0.60;33.50;;;;;;5067556;28;20056;-59
2022/03/22 00:35:41;;;;;;;16.98;8.60;;;0.60;34.70;;;;;;5058794;28;20075;-60
2022/03/22 00:38:11;;;;;;;17.63;8.35;;;0.60;37.40;;;;;;5066927;28;20121;-60
2022/03/22 00:40:37;;;;;;;17.55;7.63;;;0.50;33.50;;;;;;5065762;28;20131;-60
2022/03/22 00:43:03;;;;;;;17.48;9.18;;;0.40;34.70;;;;;;5066851;28;20036;-60
2022/03/22 00:45:34;;;;;;;20.88;9.57;;;0.30;36.60;;;;;;5053239;28;20063;-60
2022/03/22 00:48:01;;;;;;;17.65;8.63;;;0.20;35.80;;;;;;5050795;28;20512;-60
2022/03/22 00:50:35;;;;;;;19.10;8.88;;;0.20;38.50;;;;;;5044319;28;20033;-59
2022/03/22 00:53:02;;;;;;;19.75;8.65;;;0.20;37.80;;;;;;5062303;28;20495;-60
2022/03/22 00:55:28;;;;;;;17.65;8.98;;;0.10;37.70;;;;;;5064197;28;20032;-60
2022/03/22 00:57:55;;;;;;;14.70;7.40;;;0.00;37.10;;;;;;5057891;28;20111;-60
2022/03/22 01:00:24;;;;;;;17.70;7.78;;;-0.10;36.20;;;;;;5061281;28;20094;-60
2022/03/22 01:02:51;;;;;;;18.20;8.05;;;-0.30;37.30;;;;;;5064307;28;20037;-60
2022/03/22 01:05:19;;;;;;;15.32;7.65;;;-0.40;38.60;;;;;;5064366;28;20117;-59
2022/03/22 01:07:47;;;;;;;14.63;6.78;;;-0.60;37.60;;;;;;5047134;28;20032;-60
2022/03/22 01:10:14;;;;;;;16.90;8.18;;;-0.70;39.30;;;;;;5064051;28;20595;-60
2022/03/22 01:12:43;;;;;;;24.77;9.70;;;-0.70;45.30;;;;;;5061949;28;20499;-60
2022/03/22 01:15:15;;;;;;;16.83;8.25;;;-0.60;43.90;;;;;;5060255;28;20390;-60
2022/03/22 01:17:41;;;;;;;17.75;8.30;;;-0.50;43.80;;;;;;5060859;28;20558;-60
2022/03/22 01:20:10;;;;;;;18.30;9.05;;;-0.50;48.90;;;;;;5059532;28;20643;-60
2022/03/22 01:22:38;;;;;;;23.33;9.88;;;-0.40;46.10;;;;;;5056451;28;20037;-60
2022/03/22 01:25:07;;;;;;;17.95;9.93;;;-0.30;48.10;;;;;;5054889;28;20258;-60
2022/03/22 01:27:33;;;;;;;16.27;8.57;;;-0.20;46.50;;;;;;5063778;28;20029;-60
2022/03/22 01:29:58;;;;;;;18.85;9.38;;;-0.30;45.30;;;;;;5064685;28;20017;-60
2022/03/22 01:32:24;;;;;;;18.85;9.95;;;-0.30;43.90;;;;;;5063930;28;20510;-60
2022/03/22 01:34:50;;;;;;;20.55;9.52;;;-0.10;44.80;;;;;;5058689;28;20021;-60
2022/03/22 01:37:15;;;;;;;19.60;9.75;;;-0.20;45.10;;;;;;5063391;28;20032;-59
2022/03/22 01:39:41;;;;;;;22.40;9.95;;;-0.20;43.50;;;;;;5065971;28;20492;-60
2022/03/22 01:42:07;;;;;;;15.82;8.35;;;-0.10;45.50;;;;;;5063786;28;20131;-60
2022/03/22 01:44:32;;;;;;;20.67;9.45;;;-0.20;46.60;;;;;;5060854;28;20033;-60
2022/03/22 01:47:01;;;;;;;20.08;9.65;;;-0.10;44.10;;;;;;5053325;28;20291;-60
2022/03/22 01:49:27;;;;;;;21.67;10.88;;;-0.10;43.00;;;;;;5049436;28;20186;-60
2022/03/22 01:51:54;;;;;;;20.90;10.10;;;-0.10;43.60;;;;;;5064026;28;20036;-60
2022/03/22 01:54:20;;;;;;;16.38;9.05;;;-0.10;43.40;;;;;;5053072;28;20384;-59
2022/03/22 01:56:45;;;;;;;18.17;9.20;;;-0.10;44.70;;;;;;5059701;28;20035;-60
2022/03/22 01:59:11;;;;;;;17.55;8.80;;;-0.20;45.90;;;;;;5053890;28;20024;-60
2022/03/22 02:07:06;;;;;;;21.15;9.07;;;-0.60;46.70;;;;;;5059437;28;20047;-60
2022/03/22 02:09:32;;;;;;;18.38;8.55;;;-0.80;48.70;;;;;;5038357;28;20032;-60
2022/03/22 02:11:58;;;;;;;23.35;10.48;;;-0.90;48.30;;;;;;5061723;28;20032;-60
2022/03/22 02:14:24;;;;;;;17.33;8.80;;;-0.80;50.10;;;;;;5045036;28;20032;-60
2022/03/22 02:16:49;;;;;;;18.70;9.07;;;-0.90;49.20;;;;;;5056854;28;20017;-60
2022/03/22 02:19:15;;;;;;;17.02;8.45;;;-1.00;52.10;;;;;;5051647;28;20499;-60
2022/03/22 02:21:42;;;;;;;15.65;8.55;;;-1.10;51.40;;;;;;5061075;28;20098;-60
2022/03/22 02:24:07;;;;;;;16.52;8.13;;;-1.20;51.50;;;;;;5043984;28;20407;-60
2022/03/22 02:26:33;;;;;;;15.35;8.18;;;-1.20;51.30;;;;;;5059367;28;20111;-60
2022/03/22 02:28:59;;;;;;;21.63;9.93;;;-1.30;52.80;;;;;;5050444;28;20055;-60
2022/03/22 02:31:28;;;;;;;20.27;9.10;;;-1.20;53.00;;;;;;5064362;28;20577;-60
2022/03/22 02:33:54;;;;;;;17.27;8.65;;;-1.30;54.30;;;;;;5056650;28;20047;-60
2022/03/22 02:36:20;;;;;;;19.58;9.05;;;-1.30;56.40;;;;;;5064658;28;20063;-60
2022/03/22 02:38:46;;;;;;;17.83;9.35;;;-1.20;55.40;;;;;;5050619;28;20500;-60
2022/03/22 02:41:22;;;;;;;18.75;9.20;;;-1.10;55.00;;;;;;5064842;28;20043;-60
2022/03/22 02:43:48;;;;;;;19.30;9.57;;;-1.10;51.00;;;;;;5045968;28;20548;-60
2022/03/22 02:46:14;;;;;;;20.77;8.98;;;-1.20;53.00;;;;;;5046058;28;20044;-60
2022/03/22 02:48:41;;;;;;;22.85;10.15;;;-1.10;50.70;;;;;;5045663;28;20529;-60
2022/03/22 02:51:07;;;;;;;21.67;10.45;;;-1.30;51.10;;;;;;5055056;28;20033;-60
2022/03/22 02:53:33;;;;;;;22.48;9.35;;;-1.20;54.50;;;;;;5051688;28;20021;-59
2022/03/22 02:55:58;;;;;;;20.70;10.15;;;-1.10;52.00;;;;;;5067964;28;20185;-59
2022/03/22 02:58:24;;;;;;;18.42;8.80;;;-1.10;52.90;;;;;;5046782;28;20043;-60
2022/03/22 03:00:49;;;;;;;19.85;9.07;;;-1.10;49.60;;;;;;5067736;28;20040;-60
2022/03/22 03:03:17;;;;;;;15.77;8.40;;;-1.30;49.10;;;;;;5047229;28;20024;-60
2022/03/22 03:05:43;;;;;;;19.45;8.60;;;-1.40;51.70;;;;;;5068209;28;20032;-60
2022/03/22 03:08:08;;;;;;;19.33;8.93;;;-1.40;52.00;;;;;;5057503;28;20112;-59
2022/03/22 03:10:34;;;;;;;16.70;7.53;;;-1.50;50.70;;;;;;5048660;28;20116;-59
2022/03/22 03:13:04;;;;;;;18.35;8.85;;;-1.60;55.20;;;;;;5065798;28;20029;-60
2022/03/22 03:15:30;;;;;;;17.58;8.63;;;-1.50;58.30;;;;;;5028233;28;20053;-59
2022/03/22 03:17:56;;;;;;;20.33;9.73;;;-1.50;61.40;;;;;;5065120;28;20036;-59
2022/03/22 03:20:22;;;;;;;17.17;8.38;;;-1.60;58.70;;;;;;5048681;28;20071;-60
2022/03/22 03:22:47;;;;;;;18.88;7.80;;;-1.70;60.60;;;;;;5066943;28;20060;-59
2022/03/22 03:25:13;;;;;;;17.23;8.18;;;-1.70;57.60;;;;;;5052703;28;20044;-60
2022/03/22 03:27:39;;;;;;;16.48;7.47;;;-1.80;56.30;;;;;;5069208;28;20072;-60
2022/03/22 03:30:06;;;;;;;19.05;8.35;;;-1.90;56.00;;;;;;5072249;28;20021;-59
2022/03/22 03:32:32;;;;;;;16.05;8.45;;;-2.10;56.90;;;;;;5056045;28;20434;-59
2022/03/22 03:34:57;;;;;;;20.13;8.50;;;-2.20;63.80;;;;;;5071912;28;20025;-59
2022/03/22 03:37:24;;;;;;;20.13;8.45;;;-2.20;61.30;;;;;;5054947;28;20495;-60
2022/03/22 03:39:50;;;;;;;19.45;8.75;;;-2.20;66.00;;;;;;5071891;28;20115;-59
2022/03/22 03:42:15;;;;;;;17.50;8.48;;;-2.30;59.80;;;;;;5053683;28;20065;-59
2022/03/22 03:47:25;;;;;;;17.88;7.35;;;-2.50;58.70;;;;;;5037855;28;20758;-59
2022/03/22 03:49:55;;;;;;;18.38;8.57;;;-2.50;63.70;;;;;;5071198;28;20119;-60
2022/03/22 03:52:26;;;;;;;16.83;8.13;;;-2.60;65.60;;;;;;5054145;28;20082;-59
2022/03/22 03:54:53;;;;;;;18.10;8.38;;;-2.60;73.30;;;;;;5071613;28;20071;-60
2022/03/22 03:57:20;;;;;;;18.48;9.40;;;-2.60;77.70;;;;;;5053745;28;20028;-59
2022/03/22 03:59:46;;;;;;;20.58;9.18;;;-2.50;75.00;;;;;;5071480;28;20025;-60
2022/03/22 04:02:12;;;;;;;15.35;6.53;;;-2.60;68.70;;;;;;5053097;28;21030;-59
2022/03/22 04:04:38;;;;;;;13.73;7.60;;;-2.60;70.50;;;;;;5071536;28;20024;-59
2022/03/22 04:07:05;;;;;;;14.35;7.03;;;-2.60;75.50;;;;;;5051598;28;20041;-59
2022/03/22 04:09:32;;;;;;;16.48;8.38;;;-2.70;75.50;;;;;;5071267;28;20048;-61
2022/03/22 04:11:57;;;;;;;21.55;9.43;;;-2.60;78.00;;;;;;5050762;28;20401;-58
2022/03/22 04:14:23;;;;;;;20.27;11.82;;;-2.40;87.40;;;;;;5071196;28;20031;-59
2022/03/22 04:16:52;;;;;;;22.20;10.60;;;-2.20;85.00;;;;;;5052092;28;20396;-59
2022/03/22 04:19:17;;;;;;;20.02;10.90;;;-2.20;84.30;;;;;;5051344;28;20081;-59
2022/03/22 04:21:45;;;;;;;21.30;10.10;;;-2.00;81.70;;;;;;5070381;28;20045;-59
2022/03/22 04:24:11;;;;;;;24.20;10.35;;;-2.10;75.30;;;;;;5052899;28;20044;-59
2022/03/22 04:26:39;;;;;;;27.05;12.85;;;-2.10;74.20;;;;;;5070909;28;20396;-59
2022/03/22 04:34:34;;;;;;;20.92;9.15;;;-1.90;72.90;;;;;;5049959;28;20479;-59
2022/03/22 04:37:00;;;;;;;19.70;9.55;;;-1.90;69.30;;;;;;5050832;28;20033;-60
2022/03/22 04:39:28;;;;;;;23.52;10.65;;;-2.00;68.50;;;;;;5053243;28;20159;-59
2022/03/22 04:41:55;;;;;;;26.73;10.57;;;-1.80;68.00;;;;;;5070761;28;20032;-60
2022/03/22 04:44:20;;;;;;;19.73;8.90;;;-1.80;70.10;;;;;;5065747;28;20028;-59
2022/03/22 04:46:46;;;;;;;19.00;8.70;;;-1.90;71.60;;;;;;5050810;28;20017;-59
2022/03/22 04:49:12;;;;;;;23.10;11.07;;;-1.90;72.10;;;;;;5048729;28;20021;-59
2022/03/22 04:57:06;;;;;;;16.30;8.82;;;-1.70;71.80;;;;;;5050735;28;20039;-59
2022/03/22 04:59:31;;;;;;;15.70;8.80;;;-1.80;72.20;;;;;;5048547;28;20029;-59
2022/03/22 05:01:57;;;;;;;23.00;10.27;;;-1.80;74.30;;;;;;5050272;28;20094;-59
2022/03/22 05:04:23;;;;;;;15.38;8.02;;;-2.00;71.80;;;;;;5048557;28;20094;-59
2022/03/22 05:06:48;;;;;;;20.33;10.15;;;-2.00;72.30;;;;;;5050382;28;20025;-59
2022/03/22 05:09:14;;;;;;;23.85;9.13;;;-2.20;75.00;;;;;;5048519;28;20510;-59
2022/03/22 05:11:39;;;;;;;21.55;9.00;;;-2.20;73.10;;;;;;5048089;28;20017;-59
2022/03/22 05:14:05;;;;;;;21.10;10.45;;;-2.30;71.30;;;;;;5050201;28;20040;-59
2022/03/22 05:16:30;;;;;;;26.38;10.65;;;-2.40;69.40;;;;;;5048249;28;20028;-60
2022/03/22 05:18:57;;;;;;;20.25;9.48;;;-2.50;71.00;;;;;;5050457;28;20055;-58
2022/03/22 05:21:24;;;;;;;19.45;9.20;;;-2.60;74.20;;;;;;5047993;28;20033;-59
2022/03/22 05:23:50;;;;;;;21.27;9.35;;;-2.60;78.70;;;;;;5046488;28;20017;-59
2022/03/22 05:26:16;;;;;;;22.85;9.70;;;-2.60;74.00;;;;;;5050185;28;20052;-59
2022/03/22 05:28:43;;;;;;;23.52;11.15;;;-2.60;72.00;;;;;;5048258;28;20036;-60
2022/03/22 05:31:10;;;;;;;14.23;7.95;;;-2.60;71.00;;;;;;5050216;28;20029;-59
2022/03/22 05:33:36;;;;;;;20.45;9.32;;;-2.60;77.60;;;;;;5048016;28;20132;-59
2022/03/22 05:36:04;;;;;;;23.10;10.55;;;-2.60;76.50;;;;;;5049565;28;20116;-59
2022/03/22 05:38:30;;;;;;;25.13;9.45;;;-2.50;74.80;;;;;;5047912;28;20118;-59
2022/03/22 05:40:56;;;;;;;23.52;11.15;;;-2.40;73.90;;;;;;5049683;28;20068;-60
2022/03/22 05:43:22;;;;;;;19.42;9.07;;;-2.30;77.30;;;;;;5053306;28;20484;-59
2022/03/22 05:45:50;;;;;;;20.52;10.02;;;-2.20;84.00;;;;;;5061725;28;20055;-59
2022/03/22 05:48:17;;;;;;;27.45;11.77;;;-1.90;86.00;;;;;;5047746;28;20025;-58
2022/03/22 05:50:42;;;;;;;23.60;13.57;;;-1.50;76.20;;;;;;5068844;28;20035;-60
2022/03/22 05:53:10;;;;;;;23.48;11.68;;;-0.90;79.50;;;;;;5048341;28;20433;-60
2022/03/22 05:55:38;;;;;;;17.73;10.05;;;1.80;60.50;;;;;;5068748;28;20055;-60
2022/03/22 05:58:05;;;;;;;24.83;12.80;;;4.00;42.20;;;;;;5047744;28;20108;-60
2022/03/22 06:00:30;;;;;;;23.02;10.60;;;5.90;30.00;;;;;;5050377;28;20020;-55
2022/03/22 06:02:56;;;;;;;24.13;11.70;;;7.50;25.20;;;;;;5058629;28;20058;-54
2022/03/22 06:05:21;;;;;;;24.27;11.93;;;8.70;18.70;;;;;;5049801;28;20475;-54
2022/03/22 06:07:47;;;;;;;25.35;13.00;;;9.80;15.50;;;;;;5066676;28;20028;-56
2022/03/22 06:10:13;;;;;;;25.52;13.60;;;10.90;14.90;;;;;;5049781;28;20037;-53
2022/03/22 06:12:47;;;;;;;21.10;11.80;;;11.90;12.90;;;;;;5066389;28;20028;-54
2022/03/22 06:15:18;;;;;;;25.27;13.80;;;12.50;8.40;;;;;;5029381;28;20112;-55
2022/03/22 06:18:11;;;;;;;24.85;12.52;;;13.30;9.60;;;;;;5045069;28;20033;-56
2022/03/22 06:20:41;;;;;;;21.48;11.95;;;14.40;5.00;;;;;;5027133;28;20042;-57
2022/03/22 06:23:09;;;;;;;28.63;14.52;;;14.90;6.20;;;;;;5055319;28;20476;-56
2022/03/22 06:25:34;;;;;;;22.27;13.95;;;15.40;7.40;;;;;;5068178;28;20062;-56
2022/03/22 06:28:00;;;;;;;22.38;12.40;;;16.00;6.10;;;;;;5058666;28;20020;-56
2022/03/22 06:30:26;;;;;;;21.92;13.52;;;16.70;3.00;;;;;;5049665;28;20041;-52
2022/03/22 06:32:53;;;;;;;20.58;11.98;;;16.90;4.70;;;;;;5066293;28;20037;-55
2022/03/22 06:35:21;;;;;;;20.08;12.80;;;17.40;3.00;;;;;;5049340;28;20112;-56
2022/03/22 06:37:48;;;;;;;20.27;11.73;;;18.10;4.50;;;;;;5066350;28;20025;-55
2022/03/22 06:40:16;;;;;;;23.45;13.05;;;18.80;4.10;;;;;;5049135;28;20032;-56
2022/03/22 06:42:42;;;;;;;22.30;11.60;;;19.20;2.70;;;;;;5066280;28;20094;-57
2022/03/22 06:45:10;;;;;;;19.65;13.05;;;19.50;2.20;;;;;;5049566;28;20021;-54
2022/03/22 06:47:36;;;;;;;20.50;12.98;;;19.60;2.30;;;;;;5066816;28;20059;-55
2022/03/22 06:50:02;;;;;;;21.85;13.20;;;19.80;1.00;;;;;;5048986;28;20052;-55
2022/03/22 06:52:27;;;;;;;21.38;12.95;;;19.90;1.00;;;;;;5066077;28;20028;-54
2022/03/22 06:54:53;;;;;;;22.92;13.55;;;20.20;1.00;;;;;;5068618;28;20032;-51
2022/03/22 06:57:19;;;;;;;19.30;12.73;;;20.60;1.00;;;;;;5051757;28;20028;-54
2022/03/22 06:59:44;;;;;;;23.63;16.13;;;21.10;1.00;;;;;;5068410;28;20028;-56
2022/03/22 07:02:10;;;;;;;19.48;13.15;;;20.70;1.00;;;;;;5051236;28;20040;-57
2022/03/22 07:04:36;;;;;;;19.40;12.20;;;21.00;1.00;;;;;;5068399;28;20039;-56
2022/03/22 07:07:02;;;;;;;18.58;13.55;;;21.70;1.00;;;;;;5050049;28;20109;-57
2022/03/22 07:09:28;;;;;;;18.15;13.23;;;22.00;1.00;;;;;;5068489;28;20029;-57
2022/03/22 07:11:55;;;;;;;28.52;15.82;;;22.10;1.00;;;;;;5048580;28;20055;-56
2022/03/22 07:15:02;;;;;;;20.10;14.23;;;21.90;1.00;;;;;;5050580;28;20106;-56
2022/03/22 07:18:26;;;;;;;20.95;13.05;;;21.90;1.00;;;;;;5059123;28;20040;-57
2022/03/22 07:21:51;;;;;;;20.42;14.18;;;22.60;1.00;;;;;;5028084;28;20049;-55
2022/03/22 07:25:16;;;;;;;18.30;14.63;;;22.40;1.00;;;;;;5054983;28;20056;-56
2022/03/22 07:28:42;;;;;;;22.35;15.48;;;21.70;1.00;;;;;;5055204;28;20378;-54
2022/03/22 07:32:07;;;;;;;20.67;13.80;;;20.70;1.00;;;;;;5028105;28;20038;-58
2022/03/22 07:35:32;;;;;;;20.65;14.40;;;19.90;1.00;;;;;;5056671;28;20089;-57
2022/03/22 07:38:58;;;;;;;23.40;14.48;;;21.10;1.00;;;;;;5047680;28;20064;-55
2022/03/22 07:42:24;;;;;;;16.77;12.52;;;21.80;1.00;;;;;;5064232;28;20114;-57
2022/03/22 07:45:49;;;;;;;17.40;12.60;;;21.80;1.00;;;;;;5054596;28;20037;-57
2022/03/22 07:56:02;;;;;;;20.83;14.20;;;24.20;1.00;;;;;;5062200;28;20036;-53
2022/03/22 07:59:28;;;;;;;19.88;12.88;;;23.50;1.00;;;;;;5043272;28;20388;-56
2022/03/22 08:02:53;;;;;;;15.85;12.13;;;22.90;1.00;;;;;;5056259;28;20052;-57
2022/03/22 08:06:18;;;;;;;17.63;13.13;;;23.00;1.00;;;;;;5034455;28;20072;-58
2022/03/22 08:09:45;;;;;;;17.70;12.57;;;23.90;1.00;;;;;;5056628;28;20037;-58
2022/03/22 08:13:09;;;;;;;18.02;13.02;;;24.90;1.00;;;;;;5058109;28;20024;-59
2022/03/22 08:16:36;;;;;;;17.70;12.80;;;24.20;1.00;;;;;;5042783;28;20539;-59
2022/03/22 08:20:00;;;;;;;17.05;12.15;;;24.20;1.00;;;;;;5063738;28;20032;-58
2022/03/22 08:23:25;;;;;;;14.93;11.93;;;23.50;1.00;;;;;;5045824;28;20076;-59
2022/03/22 08:26:50;;;;;;;15.68;11.00;;;22.50;1.00;;;;;;5067495;28;20098;-59
2022/03/22 08:30:20;;;;;;;16.17;11.50;;;22.90;1.00;;;;;;5057761;28;20049;-59
2022/03/22 08:33:41;;;;;;;14.02;10.77;;;23.20;1.00;;;;;;5044147;28;20107;-61
2022/03/22 08:37:07;;;;;;;13.23;10.35;;;24.80;1.00;;;;;;5066395;28;20124;-60
2022/03/22 08:40:32;;;;;;;17.08;10.73;;;26.10;1.00;;;;;;5048107;28;20551;-61
2022/03/22 08:43:57;;;;;;;13.05;9.52;;;24.70;1.00;;;;;;5058477;28;20039;-61
2022/03/22 08:47:23;;;;;;;11.63;8.95;;;24.90;1.00;;;;;;5056887;28;20369;-59
2022/03/22 08:50:52;;;;;;;12.80;9.90;;;25.50;1.00;;;;;;5046881;28;20370;-59
2022/03/22 08:54:17;;;;;;;15.73;9.23;;;25.20;1.00;;;;;;5058916;28;20033;-58
2022/03/22 08:57:42;;;;;;;11.05;9.15;;;25.50;1.00;;;;;;5063920;28;20033;-59
2022/03/22 09:01:07;;;;;;;12.73;9.35;;;26.20;1.00;;;;;;5043035;28;20108;-57
2022/03/22 09:07:58;;;;;;;11.93;9.40;;;26.00;1.00;;;;;;5049751;28;20515;-59
2022/03/22 09:11:22;;;;;;;11.35;8.55;;;25.90;1.00;;;;;;5059280;28;20021;-57
2022/03/22 09:14:47;;;;;;;12.02;9.13;;;25.60;1.00;;;;;;5061957;28;20036;-57
2022/03/22 09:18:18;;;;;;;12.05;8.65;;;26.90;1.00;;;;;;5028287;28;20269;-57
2022/03/22 09:21:44;;;;;;;12.18;8.73;;;27.20;1.00;;;;;;5064472;28;20053;-58
2022/03/22 09:25:09;;;;;;;11.35;8.23;;;25.90;1.00;;;;;;5052406;28;20061;-60
2022/03/22 09:28:34;;;;;;;11.57;8.98;;;25.40;1.00;;;;;;5054209;28;20039;-60
2022/03/22 09:32:00;;;;;;;11.30;8.38;;;25.30;1.00;;;;;;5055628;28;20484;-57
2022/03/22 09:35:25;;;;;;;10.85;8.25;;;26.00;1.00;;;;;;5049667;28;20052;-57
2022/03/22 09:38:50;;;;;;;8.60;7.57;;;26.20;1.00;;;;;;5047107;28;20550;-56
2022/03/22 09:42:31;;;;;;;10.80;7.38;;;26.60;1.00;;;;;;5061009;28;20129;-60
2022/03/22 09:45:57;;;;;;;13.68;8.45;;;26.30;1.00;;;;;;5049405;28;20036;-53
2022/03/22 09:49:22;;;;;;;12.18;8.65;;;25.20;1.00;;;;;;5057632;28;20556;-57
2022/03/22 09:52:47;;;;;;;14.40;8.70;;;25.00;1.00;;;;;;5042134;28;20025;-57
2022/03/22 09:56:12;;;;;;;12.63;8.32;;;24.10;1.00;;;;;;5057159;28;20044;-60
2022/03/22 09:59:38;;;;;;;10.57;8.15;;;24.70;1.00;;;;;;5066176;28;20073;-59
2022/03/22 10:03:06;;;;;;;11.10;8.63;;;25.40;1.00;;;;;;5052612;28;20107;-60
2022/03/22 10:06:38;;;;;;;11.27;7.90;;;25.10;1.00;;;;;;5064388;28;20036;-58
2022/03/22 10:10:18;;;;;;;12.23;9.05;;;24.20;1.00;;;;;;5064502;28;20038;-60
2022/03/22 10:13:43;;;;;;;12.38;8.73;;;24.40;1.00;;;;;;5044878;28;20040;-59
2022/03/22 10:17:09;;;;;;;11.82;7.60;;;23.00;1.00;;;;;;5060415;28;20116;-60
2022/03/22 10:20:40;;;;;;;11.25;7.78;;;22.70;1.00;;;;;;5048147;28;20068;-60
2022/03/22 10:23:48;;;;;;;11.63;8.25;;;24.00;1.00;;;;;;5062748;28;20044;-60
2022/03/22 10:27:14;;;;;;;13.93;8.88;;;22.40;1.00;;;;;;5054821;28;20052;-60
2022/03/22 10:30:40;;;;;;;15.02;9.15;;;19.70;1.00;;;;;;5047863;28;20033;-60
2022/03/22 10:34:07;;;;;;;12.20;8.25;;;17.90;1.00;;;;;;5061624;28;20032;-59
2022/03/22 10:37:33;;;;;;;10.50;8.23;;;16.80;1.00;;;;;;5061974;28;20024;-58
2022/03/22 10:41:09;;;;;;;13.13;8.90;;;15.90;1.00;;;;;;5027754;28;20409;-59
2022/03/22 10:44:31;;;;;;;12.55;8.75;;;15.30;1.00;;;;;;5056710;28;20048;-59
2022/03/22 10:48:06;;;;;;;11.60;8.38;;;15.00;1.00;;;;;;5040793;28;20031;-59
2022/03/22 10:51:31;;;;;;;10.02;7.65;;;14.80;1.00;;;;;;5063910;28;20029;-59
2022/03/22 10:54:56;;;;;;;12.02;8.30;;;14.80;1.00;;;;;;5060873;28;20415;-59
2022/03/22 10:58:22;;;;;;;14.13;9.35;;;14.60;1.00;;;;;;5049324;28;20032;-58
2022/03/22 11:01:47;;;;;;;13.52;9.15;;;14.60;1.00;;;;;;5061437;28;20506;-54
2022/03/22 11:05:12;;;;;;;11.48;8.23;;;14.70;1.00;;;;;;5052846;28;20033;-61
2022/03/22 11:08:41;;;;;;;14.65;8.63;;;14.70;1.00;;;;;;5055125;28;20029;-59
2022/03/22 11:11:46;;;;;;;;;;;14.80;1.00;;;;;;5059631;28;20048;-59
2022/03/22 11:15:11;;;;;;;12.55;8.68;;;14.60;1.00;;;;;;5053151;28;20003;-60
2022/03/22 11:18:37;;;;;;;14.90;8.80;;;14.50;1.00;;;;;;5054450;28;20040;-58
2022/03/22 11:22:02;;;;;;;12.70;8.45;;;14.60;1.00;;;;;;5053855;28;20044;-60
2022/03/22 11:25:36;;;;;;;11.60;7.55;;;14.50;1.00;;;;;;5056458;28;20052;-58
2022/03/22 11:29:01;;;;;;;13.70;8.23;;;14.70;1.00;;;;;;5043791;28;20037;-60
2022/03/22 11:35:51;;;;;;;11.82;8.32;;;14.70;1.00;;;;;;5027641;28;20095;-60
2022/03/22 11:42:59;;;;;;;10.50;7.18;;;14.80;1.00;;;;;;5059112;28;20443;-59
2022/03/22 11:46:07;;;;;;;12.23;7.50;;;14.80;1.00;;;;;;5061956;28;20087;-59
2022/03/22 11:49:38;;;;;;;12.98;8.55;;;14.80;1.00;;;;;;5043110;28;20029;-59
2022/03/22 11:53:04;;;;;;;12.13;7.43;;;14.80;1.00;;;;;;5047658;28;20408;-60
2022/03/22 11:56:29;;;;;;;10.43;7.68;;;14.90;1.00;;;;;;5059236;28;20093;-60
2022/03/22 12:00:00;;;;;;;10.20;7.05;;;15.10;1.00;;;;;;5067789;28;20055;-60
2022/03/22 12:02:51;;;;;;;12.77;8.32;;;15.10;1.00;;;;;;5067448;28;20036;-57
2022/03/22 12:05:18;;;;;;;12.25;7.53;;;15.00;1.00;;;;;;5051331;28;20515;-48
2022/03/22 12:07:45;;;;;;;12.95;8.07;;;14.90;1.00;;;;;;5070353;28;20038;-53
2022/03/22 12:10:19;;;;;;;11.23;7.95;;;14.80;1.00;;;;;;5050611;28;20037;-49
2022/03/22 12:12:49;;;;;;;11.15;7.80;;;14.80;1.00;;;;;;5069916;28;20032;-48
2022/03/22 12:15:17;;;;;;;11.75;7.32;;;14.80;1.00;;;;;;5033626;28;20037;-50
2022/03/22 12:17:43;;;;;;;9.60;6.63;;;14.80;1.00;;;;;;5070424;28;20287;-48
2022/03/22 12:20:11;;;;;;;13.70;8.25;;;14.80;1.00;;;;;;5051235;28;20036;-49
2022/03/22 12:22:45;;;;;;;12.82;8.63;;;15.00;1.00;;;;;;5071015;28;20036;-51
2022/03/22 12:25:51;;;;;;;10.00;6.28;;;15.10;1.00;;;;;;5052414;28;20036;-53
2022/03/22 12:29:16;;;;;;;9.90;7.70;;;15.20;1.00;;;;;;5030916;28;20037;-48
2022/03/22 12:32:41;;;;;;;10.07;7.28;;;15.30;1.00;;;;;;5049565;28;20512;-50
2022/03/22 12:36:06;;;;;;;10.50;7.53;;;15.20;1.00;;;;;;5057496;28;20291;-52
2022/03/22 12:39:32;;;;;;;12.10;8.18;;;15.10;1.00;;;;;;5050744;28;20489;-54
2022/03/22 12:42:57;;;;;;;10.38;7.78;;;15.20;1.00;;;;;;5062656;28;20052;-50
2022/03/22 12:46:23;;;;;;;12.27;8.40;;;15.20;1.00;;;;;;5051254;28;20052;-53
2022/03/22 12:49:48;;;;;;;8.73;7.10;;;15.20;1.00;;;;;;5059244;28;20115;-51
2022/03/22 12:53:13;;;;;;;10.30;7.10;;;15.20;1.00;;;;;;5059431;28;20408;-52
2022/03/22 12:56:39;;;;;;;8.95;6.22;;;15.30;1.00;;;;;;5061617;28;20020;-49
2022/03/22 13:00:04;;;;;;;10.68;6.93;;;15.20;1.00;;;;;;5058866;28;20059;-48
2022/03/22 13:03:30;;;;;;;9.98;7.20;;;15.30;1.00;;;;;;5058584;28;20063;-51
2022/03/22 13:06:55;;;;;;;10.13;7.38;;;15.50;1.00;;;;;;5046002;28;20025;-52
2022/03/22 13:17:11;;;;;;;11.82;7.40;;;15.60;1.00;;;;;;5053180;28;20107;-52
2022/03/22 13:20:36;;;;;;;10.50;7.35;;;15.80;1.00;;;;;;5063670;28;20471;-49
2022/03/22 13:24:02;;;;;;;8.45;6.20;;;15.60;1.00;;;;;;5052846;28;20037;-52
2022/03/22 13:27:36;;;;;;;10.75;7.28;;;15.50;1.00;;;;;;5058343;28;20094;-50
2022/03/22 13:31:01;;;;;;;12.60;7.72;;;15.60;1.00;;;;;;5056542;28;20032;-49
2022/03/22 13:34:27;;;;;;;10.18;7.15;;;15.80;1.00;;;;;;5051002;28;20113;-48
2022/03/22 13:38:01;;;;;;;7.75;5.80;;;15.90;1.00;;;;;;5065014;28;20042;-48
2022/03/22 13:41:26;;;;;;;11.60;7.65;;;15.90;1.00;;;;;;5063572;28;20032;-53
2022/03/22 13:44:52;;;;;;;10.18;7.13;;;15.80;1.00;;;;;;5049397;28;20369;-48
2022/03/22 13:48:17;;;;;;;9.77;6.47;;;15.80;1.00;;;;;;5044965;28;20032;-49
2022/03/22 13:51:42;;;;;;;12.20;7.65;;;15.80;1.00;;;;;;5047185;28;20658;-50
2022/03/22 13:55:08;;;;;;;9.48;6.50;;;15.90;1.00;;;;;;5058027;28;20040;-53
2022/03/22 13:58:33;;;;;;;9.75;7.03;;;15.90;1.00;;;;;;5058084;28;20042;-48
2022/03/22 14:01:59;;;;;;;10.70;7.32;;;15.80;1.00;;;;;;5050428;28;20051;-50
2022/03/22 14:05:24;;;;;;;10.27;6.90;;;15.80;1.00;;;;;;5058016;28;20040;-47
2022/03/22 14:08:49;;;;;;;8.85;5.57;;;15.80;1.00;;;;;;5057820;28;20411;-48
2022/03/22 14:12:15;;;;;;;10.50;6.82;;;15.90;1.00;;;;;;5041765;28;20052;-50
2022/03/22 14:15:40;;;;;;;8.57;6.57;;;16.10;1.00;;;;;;5055983;28;20490;-50
2022/03/22 14:19:10;;;;;;;12.93;6.55;;;16.10;1.00;;;;;;5054317;28;20047;-52
2022/03/22 14:22:31;;;;;;;10.13;7.10;;;16.10;1.00;;;;;;5048611;28;20508;-54
2022/03/22 14:25:56;;;;;;;11.77;7.32;;;16.10;1.00;;;;;;5064961;28;20052;-54
2022/03/22 14:29:21;;;;;;;10.98;6.35;;;16.20;1.00;;;;;;5052611;28;20056;-52
2022/03/22 14:32:47;;;;;;;11.70;6.78;;;16.20;1.00;;;;;;5064282;28;20057;-51
2022/03/22 14:36:12;;;;;;;10.98;7.35;;;16.20;1.00;;;;;;5058631;28;20066;-51
2022/03/22 14:39:38;;;;;;;8.05;6.45;;;16.20;1.00;;;;;;5047147;28;20090;-51
2022/03/22 14:43:04;;;;;;;10.23;6.03;;;16.20;1.00;;;;;;5056504;28;20083;-50
2022/03/22 14:46:30;;;;;;;9.02;6.38;;;16.20;1.00;;;;;;5055909;28;20488;-50
2022/03/22 14:49:54;;;;;;;7.32;5.50;;;16.10;1.00;;;;;;5040549;28;20048;-53
2022/03/22 14:58:52;;;;;;;10.07;5.93;;;16.20;1.00;;;;;;5045991;28;20526;-50
2022/03/22 15:02:14;;;;;;;10.13;5.20;;;16.20;1.00;;;;;;5065096;28;20044;-49
2022/03/22 15:05:41;;;;;;;10.35;5.82;;;16.10;1.00;;;;;;5047124;28;20033;-50
2022/03/22 15:09:05;;;;;;;7.70;5.28;;;16.00;1.00;;;;;;5059732;28;20467;-51
2022/03/22 15:12:30;;;;;;;7.13;5.35;;;16.00;1.00;;;;;;5061337;28;20034;-50
2022/03/22 15:15:55;;;;;;;7.93;5.13;;;15.90;1.00;;;;;;5042776;28;20033;-51
2022/03/22 15:19:21;;;;;;;8.38;4.93;;;15.90;1.00;;;;;;5055781;28;20107;-49
2022/03/22 15:22:46;;;;;;;8.75;5.65;;;15.80;1.00;;;;;;5051091;28;20489;-53
2022/03/22 15:26:11;;;;;;;8.90;5.72;;;15.90;1.00;;;;;;5063142;28;20098;-47
2022/03/22 15:29:36;;;;;;;9.25;5.28;;;15.90;1.00;;;;;;5059564;28;20028;-49
2022/03/22 15:33:02;;;;;;;6.45;4.60;;;15.90;1.00;;;;;;5064918;28;20067;-50
2022/03/22 15:36:27;;;;;;;7.25;4.47;;;15.90;1.00;;;;;;5067071;28;20381;-48